sensor_id;sensor_type;location;lat;lon;timestamp;P1;durP1;ratioP1;P2;durP2;ratioP2
35679;SDS011;21803;53.586;10.040;2022-08-19T00:00:15;9.20;;;3.63;;
35679;SDS011;21803;53.586;10.040;2022-08-19T00:02:41;4.78;;;2.85;;
35679;SDS011;21803;53.586;10.040;2022-08-19T00:05:08;3.90;;;2.83;;
35679;SDS011;21803;53.586;10.040;2022-08-19T00:07:35;5.50;;;3.45;;
35679;SDS011;21803;53.586;10.040;2022-08-19T00:10:02;3.78;;;3.00;;
35679;SDS011;21803;53.586;10.040;2022-08-19T00:12:29;4.40;;;2.88;;
35679;SDS011;21803;53.586;10.040;2022-08-19T00:14:55;6.25;;;3.10;;
35679;SDS011;21803;53.586;10.040;2022-08-19T00:17:21;4.50;;;3.20;;
35679;SDS011;21803;53.586;10.040;2022-08-19T00:19:46;4.57;;;3.15;;
35679;SDS011;21803;53.586;10.040;2022-08-19T00:22:12;3.50;;;2.92;;
35679;SDS011;21803;53.586;10.040;2022-08-19T00:24:37;5.22;;;3.40;;
35679;SDS011;21803;53.586;10.040;2022-08-19T00:27:03;4.53;;;3.10;;
35679;SDS011;21803;53.586;10.040;2022-08-19T00:29:29;4.57;;;3.35;;
35679;SDS011;21803;53.586;10.040;2022-08-19T00:31:56;4.00;;;3.60;;
35679;SDS011;21803;53.586;10.040;2022-08-19T00:34:24;4.40;;;3.15;;
35679;SDS011;21803;53.586;10.040;2022-08-19T00:36:54;3.95;;;3.55;;
35679;SDS011;21803;53.586;10.040;2022-08-19T00:39:19;3.80;;;3.30;;
35679;SDS011;21803;53.586;10.040;2022-08-19T00:41:45;4.38;;;3.58;;
35679;SDS011;21803;53.586;10.040;2022-08-19T00:44:14;5.45;;;3.65;;
35679;SDS011;21803;53.586;10.040;2022-08-19T00:46:44;4.97;;;4.13;;
35679;SDS011;21803;53.586;10.040;2022-08-19T00:49:13;4.63;;;3.95;;
35679;SDS011;21803;53.586;10.040;2022-08-19T00:51:42;6.82;;;4.15;;
35679;SDS011;21803;53.586;10.040;2022-08-19T00:54:10;4.57;;;3.85;;
35679;SDS011;21803;53.586;10.040;2022-08-19T00:56:36;3.75;;;3.40;;
35679;SDS011;21803;53.586;10.040;2022-08-19T00:59:02;5.78;;;4.25;;
35679;SDS011;21803;53.586;10.040;2022-08-19T01:01:34;4.70;;;4.05;;
35679;SDS011;21803;53.586;10.040;2022-08-19T01:04:00;5.30;;;4.03;;
35679;SDS011;21803;53.586;10.040;2022-08-19T01:06:26;5.47;;;3.80;;
35679;SDS011;21803;53.586;10.040;2022-08-19T01:08:53;5.38;;;3.78;;
35679;SDS011;21803;53.586;10.040;2022-08-19T01:11:19;5.95;;;4.40;;
35679;SDS011;21803;53.586;10.040;2022-08-19T01:13:45;6.57;;;4.43;;
35679;SDS011;21803;53.586;10.040;2022-08-19T01:16:11;5.25;;;4.10;;
35679;SDS011;21803;53.586;10.040;2022-08-19T01:18:39;6.63;;;4.22;;
35679;SDS011;21803;53.586;10.040;2022-08-19T01:21:08;5.35;;;3.88;;
35679;SDS011;21803;53.586;10.040;2022-08-19T01:23:47;5.68;;;4.28;;
35679;SDS011;21803;53.586;10.040;2022-08-19T01:26:14;6.05;;;4.50;;
35679;SDS011;21803;53.586;10.040;2022-08-19T01:28:43;5.88;;;4.50;;
35679;SDS011;21803;53.586;10.040;2022-08-19T01:31:12;6.13;;;4.68;;
35679;SDS011;21803;53.586;10.040;2022-08-19T01:33:39;5.95;;;4.45;;
35679;SDS011;21803;53.586;10.040;2022-08-19T01:36:09;6.00;;;4.50;;
35679;SDS011;21803;53.586;10.040;2022-08-19T01:38:39;5.90;;;4.53;;
35679;SDS011;21803;53.586;10.040;2022-08-19T01:41:07;6.35;;;4.57;;
35679;SDS011;21803;53.586;10.040;2022-08-19T01:43:34;6.45;;;4.80;;
35679;SDS011;21803;53.586;10.040;2022-08-19T01:46:00;8.15;;;4.30;;
35679;SDS011;21803;53.586;10.040;2022-08-19T01:48:26;8.07;;;4.85;;
35679;SDS011;21803;53.586;10.040;2022-08-19T01:50:54;5.47;;;4.30;;
35679;SDS011;21803;53.586;10.040;2022-08-19T01:53:20;6.00;;;4.75;;
35679;SDS011;21803;53.586;10.040;2022-08-19T01:55:45;5.88;;;4.30;;
35679;SDS011;21803;53.586;10.040;2022-08-19T01:58:21;6.88;;;4.90;;
35679;SDS011;21803;53.586;10.040;2022-08-19T02:00:49;4.97;;;4.03;;
35679;SDS011;21803;53.586;10.040;2022-08-19T02:03:15;6.55;;;4.72;;
35679;SDS011;21803;53.586;10.040;2022-08-19T02:05:42;7.22;;;4.30;;
35679;SDS011;21803;53.586;10.040;2022-08-19T02:08:09;6.00;;;4.78;;
35679;SDS011;21803;53.586;10.040;2022-08-19T02:10:37;5.40;;;4.40;;
35679;SDS011;21803;53.586;10.040;2022-08-19T02:13:05;5.70;;;4.53;;
35679;SDS011;21803;53.586;10.040;2022-08-19T02:15:31;6.70;;;4.80;;
35679;SDS011;21803;53.586;10.040;2022-08-19T02:17:57;6.72;;;4.80;;
35679;SDS011;21803;53.586;10.040;2022-08-19T02:20:23;6.47;;;4.32;;
35679;SDS011;21803;53.586;10.040;2022-08-19T02:22:49;6.72;;;4.38;;
35679;SDS011;21803;53.586;10.040;2022-08-19T02:25:14;6.80;;;4.78;;
35679;SDS011;21803;53.586;10.040;2022-08-19T02:27:40;5.80;;;4.75;;
35679;SDS011;21803;53.586;10.040;2022-08-19T02:30:08;5.80;;;4.78;;
35679;SDS011;21803;53.586;10.040;2022-08-19T02:32:36;5.20;;;4.57;;
35679;SDS011;21803;53.586;10.040;2022-08-19T02:35:02;6.95;;;4.78;;
35679;SDS011;21803;53.586;10.040;2022-08-19T02:37:28;5.00;;;4.22;;
35679;SDS011;21803;53.586;10.040;2022-08-19T02:40:12;6.95;;;5.07;;
35679;SDS011;21803;53.586;10.040;2022-08-19T02:42:38;5.63;;;4.28;;
35679;SDS011;21803;53.586;10.040;2022-08-19T02:45:04;5.63;;;4.60;;
35679;SDS011;21803;53.586;10.040;2022-08-19T02:47:30;6.85;;;4.68;;
35679;SDS011;21803;53.586;10.040;2022-08-19T02:49:56;6.57;;;4.53;;
35679;SDS011;21803;53.586;10.040;2022-08-19T02:52:21;6.43;;;4.50;;
35679;SDS011;21803;53.586;10.040;2022-08-19T02:54:48;7.13;;;4.60;;
35679;SDS011;21803;53.586;10.040;2022-08-19T02:57:14;6.28;;;4.50;;
35679;SDS011;21803;53.586;10.040;2022-08-19T02:59:40;5.75;;;4.60;;
35679;SDS011;21803;53.586;10.040;2022-08-19T03:02:05;7.60;;;5.13;;
35679;SDS011;21803;53.586;10.040;2022-08-19T03:04:31;7.30;;;5.15;;
35679;SDS011;21803;53.586;10.040;2022-08-19T03:06:56;5.70;;;4.63;;
35679;SDS011;21803;53.586;10.040;2022-08-19T03:09:22;6.55;;;4.78;;
35679;SDS011;21803;53.586;10.040;2022-08-19T03:11:47;7.95;;;5.18;;
35679;SDS011;21803;53.586;10.040;2022-08-19T03:14:13;6.53;;;4.80;;
35679;SDS011;21803;53.586;10.040;2022-08-19T03:16:40;5.90;;;4.43;;
35679;SDS011;21803;53.586;10.040;2022-08-19T03:19:08;8.30;;;4.90;;
35679;SDS011;21803;53.586;10.040;2022-08-19T03:21:34;10.45;;;5.15;;
35679;SDS011;21803;53.586;10.040;2022-08-19T03:24:01;6.88;;;5.45;;
35679;SDS011;21803;53.586;10.040;2022-08-19T03:26:29;8.55;;;5.28;;
35679;SDS011;21803;53.586;10.040;2022-08-19T03:28:55;6.43;;;4.68;;
35679;SDS011;21803;53.586;10.040;2022-08-19T03:31:21;6.72;;;5.07;;
35679;SDS011;21803;53.586;10.040;2022-08-19T03:33:48;7.63;;;5.22;;
35679;SDS011;21803;53.586;10.040;2022-08-19T03:36:15;7.82;;;5.25;;
35679;SDS011;21803;53.586;10.040;2022-08-19T03:38:44;8.50;;;5.07;;
35679;SDS011;21803;53.586;10.040;2022-08-19T03:41:13;8.77;;;5.30;;
35679;SDS011;21803;53.586;10.040;2022-08-19T03:43:41;9.85;;;5.35;;
35679;SDS011;21803;53.586;10.040;2022-08-19T03:46:11;9.30;;;5.80;;
35679;SDS011;21803;53.586;10.040;2022-08-19T03:48:39;9.57;;;5.50;;
35679;SDS011;21803;53.586;10.040;2022-08-19T03:51:06;8.45;;;5.28;;
35679;SDS011;21803;53.586;10.040;2022-08-19T03:53:33;8.40;;;5.57;;
35679;SDS011;21803;53.586;10.040;2022-08-19T03:56:00;7.82;;;5.10;;
35679;SDS011;21803;53.586;10.040;2022-08-19T03:58:27;8.43;;;6.18;;
35679;SDS011;21803;53.586;10.040;2022-08-19T04:00:55;8.95;;;5.78;;
35679;SDS011;21803;53.586;10.040;2022-08-19T04:03:22;8.77;;;5.47;;
35679;SDS011;21803;53.586;10.040;2022-08-19T04:05:49;10.30;;;5.78;;
35679;SDS011;21803;53.586;10.040;2022-08-19T04:08:15;7.35;;;5.22;;
35679;SDS011;21803;53.586;10.040;2022-08-19T04:10:43;9.55;;;5.47;;
35679;SDS011;21803;53.586;10.040;2022-08-19T04:13:09;7.68;;;5.13;;
35679;SDS011;21803;53.586;10.040;2022-08-19T04:15:38;7.72;;;5.13;;
35679;SDS011;21803;53.586;10.040;2022-08-19T04:18:06;8.40;;;5.50;;
35679;SDS011;21803;53.586;10.040;2022-08-19T04:20:37;8.18;;;4.90;;
35679;SDS011;21803;53.586;10.040;2022-08-19T04:23:07;7.57;;;5.45;;
35679;SDS011;21803;53.586;10.040;2022-08-19T04:25:37;8.93;;;5.65;;
35679;SDS011;21803;53.586;10.040;2022-08-19T04:28:06;7.13;;;4.82;;
35679;SDS011;21803;53.586;10.040;2022-08-19T04:30:41;8.07;;;5.20;;
35679;SDS011;21803;53.586;10.040;2022-08-19T04:33:09;8.13;;;5.15;;
35679;SDS011;21803;53.586;10.040;2022-08-19T04:35:45;8.00;;;4.80;;
35679;SDS011;21803;53.586;10.040;2022-08-19T04:38:13;8.38;;;5.38;;
35679;SDS011;21803;53.586;10.040;2022-08-19T04:40:40;11.00;;;5.30;;
35679;SDS011;21803;53.586;10.040;2022-08-19T04:43:26;8.57;;;4.70;;
35679;SDS011;21803;53.586;10.040;2022-08-19T04:45:52;9.38;;;5.65;;
35679;SDS011;21803;53.586;10.040;2022-08-19T04:48:18;6.90;;;5.00;;
35679;SDS011;21803;53.586;10.040;2022-08-19T04:50:54;8.52;;;5.25;;
35679;SDS011;21803;53.586;10.040;2022-08-19T04:53:23;8.00;;;5.20;;
35679;SDS011;21803;53.586;10.040;2022-08-19T04:55:54;7.03;;;4.95;;
35679;SDS011;21803;53.586;10.040;2022-08-19T04:58:21;9.70;;;5.55;;
35679;SDS011;21803;53.586;10.040;2022-08-19T05:00:48;8.35;;;6.10;;
35679;SDS011;21803;53.586;10.040;2022-08-19T05:03:13;7.22;;;5.30;;
35679;SDS011;21803;53.586;10.040;2022-08-19T05:05:41;6.25;;;5.25;;
35679;SDS011;21803;53.586;10.040;2022-08-19T05:08:06;9.40;;;5.53;;
35679;SDS011;21803;53.586;10.040;2022-08-19T05:10:35;8.40;;;5.68;;
35679;SDS011;21803;53.586;10.040;2022-08-19T05:13:01;9.23;;;5.30;;
35679;SDS011;21803;53.586;10.040;2022-08-19T05:15:27;8.75;;;6.00;;
35679;SDS011;21803;53.586;10.040;2022-08-19T05:17:53;11.07;;;5.82;;
35679;SDS011;21803;53.586;10.040;2022-08-19T05:20:38;9.18;;;5.57;;
35679;SDS011;21803;53.586;10.040;2022-08-19T05:23:22;8.00;;;5.53;;
35679;SDS011;21803;53.586;10.040;2022-08-19T05:25:48;11.52;;;5.82;;
35679;SDS011;21803;53.586;10.040;2022-08-19T05:28:15;10.13;;;6.18;;
35679;SDS011;21803;53.586;10.040;2022-08-19T05:30:41;10.25;;;6.43;;
35679;SDS011;21803;53.586;10.040;2022-08-19T05:33:08;9.98;;;6.18;;
35679;SDS011;21803;53.586;10.040;2022-08-19T05:35:35;9.18;;;6.28;;
35679;SDS011;21803;53.586;10.040;2022-08-19T05:38:02;9.00;;;6.07;;
35679;SDS011;21803;53.586;10.040;2022-08-19T05:40:28;9.27;;;6.32;;
35679;SDS011;21803;53.586;10.040;2022-08-19T05:42:53;10.25;;;5.82;;
35679;SDS011;21803;53.586;10.040;2022-08-19T05:45:19;11.07;;;6.53;;
35679;SDS011;21803;53.586;10.040;2022-08-19T05:47:46;9.32;;;6.00;;
35679;SDS011;21803;53.586;10.040;2022-08-19T05:50:12;10.40;;;6.43;;
35679;SDS011;21803;53.586;10.040;2022-08-19T05:52:38;10.05;;;6.78;;
35679;SDS011;21803;53.586;10.040;2022-08-19T05:55:04;11.70;;;6.57;;
35679;SDS011;21803;53.586;10.040;2022-08-19T05:57:30;8.05;;;5.80;;
35679;SDS011;21803;53.586;10.040;2022-08-19T05:59:56;9.05;;;6.30;;
35679;SDS011;21803;53.586;10.040;2022-08-19T06:02:25;10.63;;;6.38;;
35679;SDS011;21803;53.586;10.040;2022-08-19T06:04:51;11.80;;;6.85;;
35679;SDS011;21803;53.586;10.040;2022-08-19T06:07:17;9.90;;;6.45;;
35679;SDS011;21803;53.586;10.040;2022-08-19T06:09:44;9.02;;;6.30;;
35679;SDS011;21803;53.586;10.040;2022-08-19T06:12:10;9.55;;;6.45;;
35679;SDS011;21803;53.586;10.040;2022-08-19T06:14:35;10.82;;;6.68;;
35679;SDS011;21803;53.586;10.040;2022-08-19T06:17:01;11.05;;;6.60;;
35679;SDS011;21803;53.586;10.040;2022-08-19T06:19:28;13.27;;;6.70;;
35679;SDS011;21803;53.586;10.040;2022-08-19T06:21:55;9.35;;;5.70;;
35679;SDS011;21803;53.586;10.040;2022-08-19T06:24:23;8.57;;;5.90;;
35679;SDS011;21803;53.586;10.040;2022-08-19T06:26:52;9.98;;;6.57;;
35679;SDS011;21803;53.586;10.040;2022-08-19T06:29:20;15.98;;;6.60;;
35679;SDS011;21803;53.586;10.040;2022-08-19T06:31:49;11.50;;;6.95;;
35679;SDS011;21803;53.586;10.040;2022-08-19T06:34:16;10.00;;;6.28;;
35679;SDS011;21803;53.586;10.040;2022-08-19T06:36:44;9.73;;;6.50;;
35679;SDS011;21803;53.586;10.040;2022-08-19T06:39:12;8.88;;;6.45;;
35679;SDS011;21803;53.586;10.040;2022-08-19T06:41:44;8.15;;;5.93;;
35679;SDS011;21803;53.586;10.040;2022-08-19T06:44:12;8.18;;;6.32;;
35679;SDS011;21803;53.586;10.040;2022-08-19T06:46:38;11.60;;;6.00;;
35679;SDS011;21803;53.586;10.040;2022-08-19T06:49:06;10.95;;;6.45;;
35679;SDS011;21803;53.586;10.040;2022-08-19T06:51:35;8.48;;;5.95;;
35679;SDS011;21803;53.586;10.040;2022-08-19T06:54:00;10.00;;;6.90;;
35679;SDS011;21803;53.586;10.040;2022-08-19T06:56:27;10.00;;;6.68;;
35679;SDS011;21803;53.586;10.040;2022-08-19T06:58:58;8.02;;;6.47;;
35679;SDS011;21803;53.586;10.040;2022-08-19T07:01:25;10.48;;;6.35;;
35679;SDS011;21803;53.586;10.040;2022-08-19T07:03:51;9.43;;;6.50;;
35679;SDS011;21803;53.586;10.040;2022-08-19T07:06:18;11.88;;;7.60;;
35679;SDS011;21803;53.586;10.040;2022-08-19T07:08:45;9.93;;;6.75;;
35679;SDS011;21803;53.586;10.040;2022-08-19T07:11:13;9.75;;;6.82;;
35679;SDS011;21803;53.586;10.040;2022-08-19T07:13:42;11.65;;;7.70;;
35679;SDS011;21803;53.586;10.040;2022-08-19T07:16:10;11.48;;;7.15;;
35679;SDS011;21803;53.586;10.040;2022-08-19T07:18:38;10.73;;;7.70;;
35679;SDS011;21803;53.586;10.040;2022-08-19T07:21:04;10.80;;;7.00;;
35679;SDS011;21803;53.586;10.040;2022-08-19T07:23:32;9.98;;;7.20;;
35679;SDS011;21803;53.586;10.040;2022-08-19T07:25:57;11.68;;;7.30;;
35679;SDS011;21803;53.586;10.040;2022-08-19T07:28:23;11.77;;;7.13;;
35679;SDS011;21803;53.586;10.040;2022-08-19T07:30:49;10.73;;;7.65;;
35679;SDS011;21803;53.586;10.040;2022-08-19T07:33:15;9.45;;;7.50;;
35679;SDS011;21803;53.586;10.040;2022-08-19T07:35:43;10.43;;;7.15;;
35679;SDS011;21803;53.586;10.040;2022-08-19T07:38:08;11.05;;;7.60;;
35679;SDS011;21803;53.586;10.040;2022-08-19T07:40:34;10.63;;;7.45;;
35679;SDS011;21803;53.586;10.040;2022-08-19T07:43:00;10.95;;;7.57;;
35679;SDS011;21803;53.586;10.040;2022-08-19T07:45:25;11.35;;;7.68;;
35679;SDS011;21803;53.586;10.040;2022-08-19T07:47:52;11.90;;;7.63;;
35679;SDS011;21803;53.586;10.040;2022-08-19T07:50:18;11.73;;;7.82;;
35679;SDS011;21803;53.586;10.040;2022-08-19T07:52:45;12.98;;;8.05;;
35679;SDS011;21803;53.586;10.040;2022-08-19T07:55:11;10.93;;;7.93;;
35679;SDS011;21803;53.586;10.040;2022-08-19T07:57:37;11.35;;;7.78;;
35679;SDS011;21803;53.586;10.040;2022-08-19T08:00:03;10.82;;;7.53;;
35679;SDS011;21803;53.586;10.040;2022-08-19T08:02:30;9.23;;;7.28;;
35679;SDS011;21803;53.586;10.040;2022-08-19T08:04:55;11.07;;;7.18;;
35679;SDS011;21803;53.586;10.040;2022-08-19T08:07:39;12.48;;;7.18;;
35679;SDS011;21803;53.586;10.040;2022-08-19T08:10:23;10.50;;;7.05;;
35679;SDS011;21803;53.586;10.040;2022-08-19T08:12:50;12.30;;;7.82;;
35679;SDS011;21803;53.586;10.040;2022-08-19T08:15:16;12.73;;;7.45;;
35679;SDS011;21803;53.586;10.040;2022-08-19T08:17:43;10.15;;;7.15;;
35679;SDS011;21803;53.586;10.040;2022-08-19T08:20:09;11.98;;;7.47;;
35679;SDS011;21803;53.586;10.040;2022-08-19T08:22:35;11.80;;;7.97;;
35679;SDS011;21803;53.586;10.040;2022-08-19T08:25:21;11.90;;;7.97;;
35679;SDS011;21803;53.586;10.040;2022-08-19T08:27:48;10.98;;;7.45;;
35679;SDS011;21803;53.586;10.040;2022-08-19T08:30:21;12.57;;;8.07;;
35679;SDS011;21803;53.586;10.040;2022-08-19T08:32:48;14.32;;;7.35;;
35679;SDS011;21803;53.586;10.040;2022-08-19T08:35:15;10.90;;;7.15;;
35679;SDS011;21803;53.586;10.040;2022-08-19T08:37:43;10.90;;;7.50;;
35679;SDS011;21803;53.586;10.040;2022-08-19T08:40:29;12.05;;;7.25;;
35679;SDS011;21803;53.586;10.040;2022-08-19T08:45:55;10.95;;;6.85;;
35679;SDS011;21803;53.586;10.040;2022-08-19T08:48:34;10.05;;;6.80;;
35679;SDS011;21803;53.586;10.040;2022-08-19T08:51:10;9.32;;;6.68;;
35679;SDS011;21803;53.586;10.040;2022-08-19T08:53:41;10.30;;;7.70;;
35679;SDS011;21803;53.586;10.040;2022-08-19T08:56:09;10.45;;;7.25;;
35679;SDS011;21803;53.586;10.040;2022-08-19T09:01:15;13.40;;;6.38;;
35679;SDS011;21803;53.586;10.040;2022-08-19T09:03:41;11.75;;;6.75;;
35679;SDS011;21803;53.586;10.040;2022-08-19T09:06:12;8.43;;;5.70;;
35679;SDS011;21803;53.586;10.040;2022-08-19T09:17:10;9.20;;;6.13;;
35679;SDS011;21803;53.586;10.040;2022-08-19T09:19:52;12.18;;;6.47;;
35679;SDS011;21803;53.586;10.040;2022-08-19T09:22:32;10.15;;;6.97;;
35679;SDS011;21803;53.586;10.040;2022-08-19T09:24:58;9.02;;;5.43;;
35679;SDS011;21803;53.586;10.040;2022-08-19T09:27:24;11.65;;;6.30;;
35679;SDS011;21803;53.586;10.040;2022-08-19T09:29:51;9.82;;;6.18;;
35679;SDS011;21803;53.586;10.040;2022-08-19T09:32:18;10.57;;;5.85;;
35679;SDS011;21803;53.586;10.040;2022-08-19T09:34:44;8.35;;;6.00;;
35679;SDS011;21803;53.586;10.040;2022-08-19T09:37:10;8.73;;;6.10;;
35679;SDS011;21803;53.586;10.040;2022-08-19T09:39:37;8.88;;;5.80;;
35679;SDS011;21803;53.586;10.040;2022-08-19T09:42:03;8.55;;;5.70;;
35679;SDS011;21803;53.586;10.040;2022-08-19T09:44:29;9.38;;;5.90;;
35679;SDS011;21803;53.586;10.040;2022-08-19T09:46:55;9.63;;;5.53;;
35679;SDS011;21803;53.586;10.040;2022-08-19T09:49:21;7.28;;;5.60;;
35679;SDS011;21803;53.586;10.040;2022-08-19T09:51:53;9.00;;;5.25;;
35679;SDS011;21803;53.586;10.040;2022-08-19T09:54:21;10.95;;;6.30;;
35679;SDS011;21803;53.586;10.040;2022-08-19T09:56:48;7.20;;;5.57;;
35679;SDS011;21803;53.586;10.040;2022-08-19T09:59:14;8.40;;;5.63;;
35679;SDS011;21803;53.586;10.040;2022-08-19T10:01:40;8.30;;;5.55;;
35679;SDS011;21803;53.586;10.040;2022-08-19T10:04:06;9.70;;;5.97;;
35679;SDS011;21803;53.586;10.040;2022-08-19T10:06:35;8.52;;;4.95;;
35679;SDS011;21803;53.586;10.040;2022-08-19T10:09:03;8.77;;;5.38;;
35679;SDS011;21803;53.586;10.040;2022-08-19T10:11:31;7.68;;;5.50;;
35679;SDS011;21803;53.586;10.040;2022-08-19T10:13:57;8.25;;;5.47;;
35679;SDS011;21803;53.586;10.040;2022-08-19T10:16:23;7.18;;;5.05;;
35679;SDS011;21803;53.586;10.040;2022-08-19T10:18:49;7.60;;;5.22;;
35679;SDS011;21803;53.586;10.040;2022-08-19T10:21:25;7.50;;;5.35;;
35679;SDS011;21803;53.586;10.040;2022-08-19T10:23:55;7.65;;;5.40;;
35679;SDS011;21803;53.586;10.040;2022-08-19T10:26:25;6.07;;;4.82;;
35679;SDS011;21803;53.586;10.040;2022-08-19T10:28:53;7.20;;;5.00;;
35679;SDS011;21803;53.586;10.040;2022-08-19T10:31:21;6.07;;;4.78;;
35679;SDS011;21803;53.586;10.040;2022-08-19T10:33:49;7.30;;;5.45;;
35679;SDS011;21803;53.586;10.040;2022-08-19T10:36:16;6.88;;;4.55;;
35679;SDS011;21803;53.586;10.040;2022-08-19T10:38:45;6.43;;;4.88;;
35679;SDS011;21803;53.586;10.040;2022-08-19T10:41:16;5.28;;;4.43;;
35679;SDS011;21803;53.586;10.040;2022-08-19T10:43:44;8.00;;;5.15;;
35679;SDS011;21803;53.586;10.040;2022-08-19T10:46:11;6.25;;;4.85;;
35679;SDS011;21803;53.586;10.040;2022-08-19T10:48:39;6.47;;;4.82;;
35679;SDS011;21803;53.586;10.040;2022-08-19T10:51:05;9.73;;;5.03;;
35679;SDS011;21803;53.586;10.040;2022-08-19T10:53:50;6.35;;;5.03;;
35679;SDS011;21803;53.586;10.040;2022-08-19T10:56:16;7.10;;;4.78;;
35679;SDS011;21803;53.586;10.040;2022-08-19T10:59:01;7.28;;;5.05;;
35679;SDS011;21803;53.586;10.040;2022-08-19T11:01:28;6.13;;;4.28;;
35679;SDS011;21803;53.586;10.040;2022-08-19T11:03:56;6.68;;;4.90;;
35679;SDS011;21803;53.586;10.040;2022-08-19T11:06:24;5.95;;;4.72;;
35679;SDS011;21803;53.586;10.040;2022-08-19T11:08:51;6.25;;;4.45;;
35679;SDS011;21803;53.586;10.040;2022-08-19T11:11:17;7.18;;;5.00;;
35679;SDS011;21803;53.586;10.040;2022-08-19T11:13:43;6.97;;;4.53;;
35679;SDS011;21803;53.586;10.040;2022-08-19T11:16:14;8.18;;;4.82;;
35679;SDS011;21803;53.586;10.040;2022-08-19T11:18:43;6.95;;;4.82;;
35679;SDS011;21803;53.586;10.040;2022-08-19T11:23:48;6.88;;;4.78;;
35679;SDS011;21803;53.586;10.040;2022-08-19T11:26:16;5.82;;;4.18;;
35679;SDS011;21803;53.586;10.040;2022-08-19T11:28:43;7.63;;;4.50;;
35679;SDS011;21803;53.586;10.040;2022-08-19T11:31:10;8.18;;;5.22;;
35679;SDS011;21803;53.586;10.040;2022-08-19T11:33:41;5.72;;;4.25;;
35679;SDS011;21803;53.586;10.040;2022-08-19T11:36:07;6.85;;;4.80;;
35679;SDS011;21803;53.586;10.040;2022-08-19T11:38:33;8.45;;;5.03;;
35679;SDS011;21803;53.586;10.040;2022-08-19T11:41:01;6.07;;;4.65;;
35679;SDS011;21803;53.586;10.040;2022-08-19T11:43:28;6.75;;;5.05;;
35679;SDS011;21803;53.586;10.040;2022-08-19T11:45:54;7.18;;;4.63;;
35679;SDS011;21803;53.586;10.040;2022-08-19T11:48:21;7.25;;;4.63;;
35679;SDS011;21803;53.586;10.040;2022-08-19T11:50:47;7.25;;;5.13;;
35679;SDS011;21803;53.586;10.040;2022-08-19T11:53:17;6.60;;;4.57;;
35679;SDS011;21803;53.586;10.040;2022-08-19T11:55:45;6.53;;;4.45;;
35679;SDS011;21803;53.586;10.040;2022-08-19T11:58:12;9.48;;;5.00;;
35679;SDS011;21803;53.586;10.040;2022-08-19T12:00:39;7.15;;;4.60;;
35679;SDS011;21803;53.586;10.040;2022-08-19T12:03:05;5.38;;;4.57;;
35679;SDS011;21803;53.586;10.040;2022-08-19T12:05:31;6.57;;;4.80;;
35679;SDS011;21803;53.586;10.040;2022-08-19T12:07:56;6.82;;;5.07;;
35679;SDS011;21803;53.586;10.040;2022-08-19T12:10:22;6.80;;;4.68;;
35679;SDS011;21803;53.586;10.040;2022-08-19T12:12:48;4.88;;;4.15;;
35679;SDS011;21803;53.586;10.040;2022-08-19T12:15:13;5.22;;;4.18;;
35679;SDS011;21803;53.586;10.040;2022-08-19T12:17:39;5.80;;;4.43;;
35679;SDS011;21803;53.586;10.040;2022-08-19T12:20:07;7.78;;;4.47;;
35679;SDS011;21803;53.586;10.040;2022-08-19T12:22:35;4.93;;;4.10;;
35679;SDS011;21803;53.586;10.040;2022-08-19T12:25:02;5.85;;;4.25;;
35679;SDS011;21803;53.586;10.040;2022-08-19T12:27:29;5.78;;;4.18;;
35679;SDS011;21803;53.586;10.040;2022-08-19T12:29:55;6.25;;;4.10;;
35679;SDS011;21803;53.586;10.040;2022-08-19T12:32:22;4.28;;;3.78;;
35679;SDS011;21803;53.586;10.040;2022-08-19T12:34:49;5.22;;;4.03;;
35679;SDS011;21803;53.586;10.040;2022-08-19T12:37:15;4.70;;;4.00;;
35679;SDS011;21803;53.586;10.040;2022-08-19T12:39:41;5.85;;;3.97;;
35679;SDS011;21803;53.586;10.040;2022-08-19T12:42:08;5.88;;;3.92;;
35679;SDS011;21803;53.586;10.040;2022-08-19T12:44:36;6.13;;;4.32;;
35679;SDS011;21803;53.586;10.040;2022-08-19T12:47:04;4.90;;;4.07;;
35679;SDS011;21803;53.586;10.040;2022-08-19T12:49:32;5.15;;;4.25;;
35679;SDS011;21803;53.586;10.040;2022-08-19T12:51:59;6.13;;;4.40;;
35679;SDS011;21803;53.586;10.040;2022-08-19T12:54:26;5.55;;;4.25;;
35679;SDS011;21803;53.586;10.040;2022-08-19T12:56:52;5.00;;;4.00;;
35679;SDS011;21803;53.586;10.040;2022-08-19T12:59:18;4.30;;;3.67;;
35679;SDS011;21803;53.586;10.040;2022-08-19T13:01:44;4.60;;;3.88;;
35679;SDS011;21803;53.586;10.040;2022-08-19T13:04:10;5.22;;;4.25;;
35679;SDS011;21803;53.586;10.040;2022-08-19T13:06:36;5.65;;;4.07;;
35679;SDS011;21803;53.586;10.040;2022-08-19T13:09:03;5.03;;;3.80;;
35679;SDS011;21803;53.586;10.040;2022-08-19T13:11:29;5.68;;;4.18;;
35679;SDS011;21803;53.586;10.040;2022-08-19T13:13:58;4.80;;;3.85;;
35679;SDS011;21803;53.586;10.040;2022-08-19T13:16:24;4.07;;;3.67;;
35679;SDS011;21803;53.586;10.040;2022-08-19T13:18:52;4.93;;;4.30;;
35679;SDS011;21803;53.586;10.040;2022-08-19T13:21:23;4.07;;;3.67;;
35679;SDS011;21803;53.586;10.040;2022-08-19T13:23:51;4.47;;;3.72;;
35679;SDS011;21803;53.586;10.040;2022-08-19T13:26:17;5.38;;;4.18;;
35679;SDS011;21803;53.586;10.040;2022-08-19T13:28:43;4.68;;;3.95;;
35679;SDS011;21803;53.586;10.040;2022-08-19T13:31:29;5.20;;;4.00;;
35679;SDS011;21803;53.586;10.040;2022-08-19T13:34:19;6.25;;;4.00;;
35679;SDS011;21803;53.586;10.040;2022-08-19T13:36:55;4.75;;;3.88;;
35679;SDS011;21803;53.586;10.040;2022-08-19T13:39:21;5.00;;;3.97;;
35679;SDS011;21803;53.586;10.040;2022-08-19T13:41:48;5.97;;;3.92;;
35679;SDS011;21803;53.586;10.040;2022-08-19T13:44:15;5.00;;;3.70;;
35679;SDS011;21803;53.586;10.040;2022-08-19T13:46:48;5.07;;;4.10;;
35679;SDS011;21803;53.586;10.040;2022-08-19T13:49:18;5.35;;;4.00;;
35679;SDS011;21803;53.586;10.040;2022-08-19T13:51:45;5.00;;;3.90;;
35679;SDS011;21803;53.586;10.040;2022-08-19T13:54:11;4.32;;;3.60;;
35679;SDS011;21803;53.586;10.040;2022-08-19T13:56:46;4.40;;;3.85;;
35679;SDS011;21803;53.586;10.040;2022-08-19T13:59:11;5.63;;;3.58;;
35679;SDS011;21803;53.586;10.040;2022-08-19T14:01:37;4.40;;;3.70;;
35679;SDS011;21803;53.586;10.040;2022-08-19T14:04:04;4.50;;;3.88;;
35679;SDS011;21803;53.586;10.040;2022-08-19T14:06:30;4.72;;;3.67;;
35679;SDS011;21803;53.586;10.040;2022-08-19T14:08:56;5.25;;;3.92;;
35679;SDS011;21803;53.586;10.040;2022-08-19T14:11:22;5.95;;;3.80;;
35679;SDS011;21803;53.586;10.040;2022-08-19T14:13:47;4.47;;;3.90;;
35679;SDS011;21803;53.586;10.040;2022-08-19T14:16:14;5.75;;;3.92;;
35679;SDS011;21803;53.586;10.040;2022-08-19T14:18:40;4.68;;;3.97;;
35679;SDS011;21803;53.586;10.040;2022-08-19T14:21:06;4.63;;;3.90;;
35679;SDS011;21803;53.586;10.040;2022-08-19T14:23:32;4.32;;;3.70;;
35679;SDS011;21803;53.586;10.040;2022-08-19T14:26:06;4.50;;;3.67;;
35679;SDS011;21803;53.586;10.040;2022-08-19T14:28:36;6.45;;;4.00;;
35679;SDS011;21803;53.586;10.040;2022-08-19T14:31:04;4.63;;;4.00;;
35679;SDS011;21803;53.586;10.040;2022-08-19T14:33:29;5.63;;;3.90;;
35679;SDS011;21803;53.586;10.040;2022-08-19T14:35:55;4.03;;;3.63;;
35679;SDS011;21803;53.586;10.040;2022-08-19T14:38:21;6.25;;;4.28;;
35679;SDS011;21803;53.586;10.040;2022-08-19T14:40:46;4.78;;;3.70;;
35679;SDS011;21803;53.586;10.040;2022-08-19T14:43:13;4.13;;;3.63;;
35679;SDS011;21803;53.586;10.040;2022-08-19T14:45:39;4.72;;;4.20;;
35679;SDS011;21803;53.586;10.040;2022-08-19T14:48:05;6.63;;;4.28;;
35679;SDS011;21803;53.586;10.040;2022-08-19T14:50:32;4.25;;;3.80;;